sensor_id;sensor_type;location;lat;lon;timestamp;temperature;humidity
29547;DHT22;40782;47.264;11.330;2023-07-13T00:02:22;18.10;99.90
29547;DHT22;40782;47.264;11.330;2023-07-13T00:04:51;18.20;99.90
29547;DHT22;40782;47.264;11.330;2023-07-13T00:07:18;18.10;99.90
29547;DHT22;40782;47.264;11.330;2023-07-13T00:09:46;18.10;99.90
29547;DHT22;40782;47.264;11.330;2023-07-13T00:12:23;18.00;99.90
29547;DHT22;40782;47.264;11.330;2023-07-13T00:14:51;18.00;99.90
29547;DHT22;40782;47.264;11.330;2023-07-13T00:17:18;18.00;99.90
29547;DHT22;40782;47.264;11.330;2023-07-13T00:19:45;18.00;99.90
29547;DHT22;40782;47.264;11.330;2023-07-13T00:22:12;18.00;99.90
29547;DHT22;40782;47.264;11.330;2023-07-13T00:24:39;18.10;99.90
29547;DHT22;40782;47.264;11.330;2023-07-13T00:27:09;18.10;99.90
29547;DHT22;40782;47.264;11.330;2023-07-13T00:29:36;18.00;99.90
29547;DHT22;40782;47.264;11.330;2023-07-13T00:32:04;18.10;99.90
29547;DHT22;40782;47.264;11.330;2023-07-13T00:34:32;18.10;99.90
29547;DHT22;40782;47.264;11.330;2023-07-13T00:36:59;18.10;99.90
29547;DHT22;40782;47.264;11.330;2023-07-13T00:39:26;18.10;99.90
29547;DHT22;40782;47.264;11.330;2023-07-13T00:41:54;18.10;99.90
29547;DHT22;40782;47.264;11.330;2023-07-13T00:44:22;18.00;99.90
29547;DHT22;40782;47.264;11.330;2023-07-13T00:46:49;17.90;99.90
29547;DHT22;40782;47.264;11.330;2023-07-13T00:49:17;17.90;99.90
29547;DHT22;40782;47.264;11.330;2023-07-13T00:51:45;17.90;99.90
29547;DHT22;40782;47.264;11.330;2023-07-13T00:54:14;17.80;99.90
29547;DHT22;40782;47.264;11.330;2023-07-13T00:56:41;17.80;99.90
29547;DHT22;40782;47.264;11.330;2023-07-13T00:59:10;17.80;99.90
29547;DHT22;40782;47.264;11.330;2023-07-13T01:01:39;17.90;99.90
29547;DHT22;40782;47.264;11.330;2023-07-13T01:04:07;17.90;99.90
29547;DHT22;40782;47.264;11.330;2023-07-13T01:06:34;17.90;99.90
29547;DHT22;40782;47.264;11.330;2023-07-13T01:09:01;18.00;99.90
29547;DHT22;40782;47.264;11.330;2023-07-13T01:11:29;18.00;99.90
29547;DHT22;40782;47.264;11.330;2023-07-13T01:13:56;18.10;99.90
29547;DHT22;40782;47.264;11.330;2023-07-13T01:16:24;18.10;99.90
29547;DHT22;40782;47.264;11.330;2023-07-13T01:18:53;18.20;99.90
29547;DHT22;40782;47.264;11.330;2023-07-13T01:21:25;18.10;99.90
29547;DHT22;40782;47.264;11.330;2023-07-13T01:23:52;18.00;99.90
29547;DHT22;40782;47.264;11.330;2023-07-13T01:26:19;18.00;99.90
29547;DHT22;40782;47.264;11.330;2023-07-13T01:28:46;18.10;99.90
29547;DHT22;40782;47.264;11.330;2023-07-13T01:31:13;18.10;99.90
29547;DHT22;40782;47.264;11.330;2023-07-13T01:33:40;18.10;99.90
29547;DHT22;40782;47.264;11.330;2023-07-13T01:36:08;18.10;99.90
29547;DHT22;40782;47.264;11.330;2023-07-13T01:38:36;18.10;99.90
29547;DHT22;40782;47.264;11.330;2023-07-13T01:41:04;18.10;99.90
29547;DHT22;40782;47.264;11.330;2023-07-13T01:43:31;18.00;99.90
29547;DHT22;40782;47.264;11.330;2023-07-13T01:45:58;17.90;99.90
29547;DHT22;40782;47.264;11.330;2023-07-13T01:48:25;18.00;99.90
29547;DHT22;40782;47.264;11.330;2023-07-13T01:50:52;18.00;99.90
29547;DHT22;40782;47.264;11.330;2023-07-13T01:53:19;17.90;99.90
29547;DHT22;40782;47.264;11.330;2023-07-13T01:55:47;17.80;99.90
29547;DHT22;40782;47.264;11.330;2023-07-13T01:58:14;17.90;99.90
29547;DHT22;40782;47.264;11.330;2023-07-13T02:00:41;17.90;99.90
29547;DHT22;40782;47.264;11.330;2023-07-13T02:03:08;17.90;99.90
29547;DHT22;40782;47.264;11.330;2023-07-13T02:05:36;18.00;99.90
29547;DHT22;40782;47.264;11.330;2023-07-13T02:08:03;17.90;99.90
29547;DHT22;40782;47.264;11.330;2023-07-13T02:10:30;17.90;99.90
29547;DHT22;40782;47.264;11.330;2023-07-13T02:12:58;17.90;99.90
29547;DHT22;40782;47.264;11.330;2023-07-13T02:15:26;17.90;99.90
29547;DHT22;40782;47.264;11.330;2023-07-13T02:17:53;17.90;99.90
29547;DHT22;40782;47.264;11.330;2023-07-13T02:20:20;17.90;99.90
29547;DHT22;40782;47.264;11.330;2023-07-13T02:22:47;17.90;99.90
29547;DHT22;40782;47.264;11.330;2023-07-13T02:25:14;17.80;99.90
29547;DHT22;40782;47.264;11.330;2023-07-13T02:27:41;17.80;99.90
29547;DHT22;40782;47.264;11.330;2023-07-13T02:30:09;17.80;99.90
29547;DHT22;40782;47.264;11.330;2023-07-13T02:32:37;17.80;99.90
29547;DHT22;40782;47.264;11.330;2023-07-13T02:35:04;17.80;99.90
29547;DHT22;40782;47.264;11.330;2023-07-13T02:37:32;17.80;99.90
29547;DHT22;40782;47.264;11.330;2023-07-13T02:39:59;17.90;99.90
29547;DHT22;40782;47.264;11.330;2023-07-13T02:42:26;17.80;99.90
29547;DHT22;40782;47.264;11.330;2023-07-13T02:44:55;17.80;99.90
29547;DHT22;40782;47.264;11.330;2023-07-13T02:47:23;17.90;99.90
29547;DHT22;40782;47.264;11.330;2023-07-13T02:49:50;17.80;99.90
29547;DHT22;40782;47.264;11.330;2023-07-13T02:52:17;17.70;99.90
29547;DHT22;40782;47.264;11.330;2023-07-13T02:54:44;17.60;99.90
29547;DHT22;40782;47.264;11.330;2023-07-13T02:57:11;17.60;99.90
29547;DHT22;40782;47.264;11.330;2023-07-13T02:59:38;17.60;99.90
29547;DHT22;40782;47.264;11.330;2023-07-13T03:02:05;17.60;99.90
29547;DHT22;40782;47.264;11.330;2023-07-13T03:04:34;17.60;99.90
29547;DHT22;40782;47.264;11.330;2023-07-13T03:07:01;17.60;99.90
29547;DHT22;40782;47.264;11.330;2023-07-13T03:09:29;17.60;99.90
29547;DHT22;40782;47.264;11.330;2023-07-13T03:11:56;17.60;99.90
29547;DHT22;40782;47.264;11.330;2023-07-13T03:14:23;17.60;99.90
29547;DHT22;40782;47.264;11.330;2023-07-13T03:16:51;17.50;99.90
29547;DHT22;40782;47.264;11.330;2023-07-13T03:19:18;17.50;99.90
29547;DHT22;40782;47.264;11.330;2023-07-13T03:21:47;17.50;99.90
29547;DHT22;40782;47.264;11.330;2023-07-13T03:24:14;17.50;99.90
29547;DHT22;40782;47.264;11.330;2023-07-13T03:26:41;17.40;99.90
29547;DHT22;40782;47.264;11.330;2023-07-13T03:29:08;17.50;99.90
29547;DHT22;40782;47.264;11.330;2023-07-13T03:31:36;17.40;99.90
29547;DHT22;40782;47.264;11.330;2023-07-13T03:34:03;17.40;99.90
29547;DHT22;40782;47.264;11.330;2023-07-13T03:36:31;17.40;99.90
29547;DHT22;40782;47.264;11.330;2023-07-13T03:39:01;17.50;99.90
29547;DHT22;40782;47.264;11.330;2023-07-13T03:41:28;17.40;99.90
29547;DHT22;40782;47.264;11.330;2023-07-13T03:43:56;17.40;99.90
29547;DHT22;40782;47.264;11.330;2023-07-13T03:46:23;17.40;99.90
29547;DHT22;40782;47.264;11.330;2023-07-13T03:48:50;17.40;99.90
29547;DHT22;40782;47.264;11.330;2023-07-13T03:51:17;17.40;99.90
29547;DHT22;40782;47.264;11.330;2023-07-13T03:53:45;17.40;99.90
29547;DHT22;40782;47.264;11.330;2023-07-13T03:56:13;17.40;99.90
29547;DHT22;40782;47.264;11.330;2023-07-13T03:58:41;17.30;99.90
29547;DHT22;40782;47.264;11.330;2023-07-13T04:01:09;17.40;99.90
29547;DHT22;40782;47.264;11.330;2023-07-13T04:03:36;17.40;99.90
29547;DHT22;40782;47.264;11.330;2023-07-13T04:06:04;17.50;99.90
29547;DHT22;40782;47.264;11.330;2023-07-13T04:08:33;17.60;99.90
29547;DHT22;40782;47.264;11.330;2023-07-13T04:11:01;17.60;99.90
29547;DHT22;40782;47.264;11.330;2023-07-13T04:13:29;17.50;99.90
29547;DHT22;40782;47.264;11.330;2023-07-13T04:15:57;17.50;99.90
29547;DHT22;40782;47.264;11.330;2023-07-13T04:18:24;17.60;99.90
29547;DHT22;40782;47.264;11.330;2023-07-13T04:20:51;17.60;99.90
29547;DHT22;40782;47.264;11.330;2023-07-13T04:23:18;17.50;99.90
29547;DHT22;40782;47.264;11.330;2023-07-13T04:25:45;17.50;99.90
29547;DHT22;40782;47.264;11.330;2023-07-13T04:28:14;17.50;99.90
29547;DHT22;40782;47.264;11.330;2023-07-13T04:30:43;17.50;99.90
29547;DHT22;40782;47.264;11.330;2023-07-13T04:33:10;17.50;99.90
29547;DHT22;40782;47.264;11.330;2023-07-13T04:35:37;17.40;99.90
29547;DHT22;40782;47.264;11.330;2023-07-13T04:38:04;17.50;99.90
29547;DHT22;40782;47.264;11.330;2023-07-13T04:40:32;17.50;99.90
29547;DHT22;40782;47.264;11.330;2023-07-13T04:42:59;17.50;99.90
29547;DHT22;40782;47.264;11.330;2023-07-13T04:45:27;17.60;99.90
29547;DHT22;40782;47.264;11.330;2023-07-13T04:47:56;17.60;99.90
29547;DHT22;40782;47.264;11.330;2023-07-13T04:50:23;17.60;99.90
29547;DHT22;40782;47.264;11.330;2023-07-13T04:52:50;17.60;99.90
29547;DHT22;40782;47.264;11.330;2023-07-13T04:55:17;17.60;99.90
29547;DHT22;40782;47.264;11.330;2023-07-13T04:57:44;17.60;99.90
29547;DHT22;40782;47.264;11.330;2023-07-13T05:00:12;17.70;99.90
29547;DHT22;40782;47.264;11.330;2023-07-13T05:02:43;17.80;99.90
29547;DHT22;40782;47.264;11.330;2023-07-13T05:05:11;17.80;99.90
29547;DHT22;40782;47.264;11.330;2023-07-13T05:07:38;17.80;99.90
29547;DHT22;40782;47.264;11.330;2023-07-13T05:10:06;17.90;99.90
29547;DHT22;40782;47.264;11.330;2023-07-13T05:12:33;17.90;99.90
29547;DHT22;40782;47.264;11.330;2023-07-13T05:15:01;17.90;99.90
29547;DHT22;40782;47.264;11.330;2023-07-13T05:17:28;17.90;99.90
29547;DHT22;40782;47.264;11.330;2023-07-13T05:19:55;17.90;99.90
29547;DHT22;40782;47.264;11.330;2023-07-13T05:22:23;17.90;99.90
29547;DHT22;40782;47.264;11.330;2023-07-13T05:24:50;17.90;99.90
29547;DHT22;40782;47.264;11.330;2023-07-13T05:27:17;17.90;99.90
29547;DHT22;40782;47.264;11.330;2023-07-13T05:29:45;17.90;99.90
29547;DHT22;40782;47.264;11.330;2023-07-13T05:32:11;17.90;99.90
29547;DHT22;40782;47.264;11.330;2023-07-13T05:34:38;17.90;99.90
29547;DHT22;40782;47.264;11.330;2023-07-13T05:37:05;18.00;99.90
29547;DHT22;40782;47.264;11.330;2023-07-13T05:39:34;18.00;99.90
29547;DHT22;40782;47.264;11.330;2023-07-13T05:42:01;18.10;99.90
29547;DHT22;40782;47.264;11.330;2023-07-13T05:44:29;18.10;99.90
29547;DHT22;40782;47.264;11.330;2023-07-13T05:46:56;18.10;99.90
29547;DHT22;40782;47.264;11.330;2023-07-13T05:49:23;18.10;99.90
29547;DHT22;40782;47.264;11.330;2023-07-13T05:51:50;18.10;99.90
29547;DHT22;40782;47.264;11.330;2023-07-13T05:54:17;18.10;99.90
29547;DHT22;40782;47.264;11.330;2023-07-13T05:56:46;18.10;99.90
29547;DHT22;40782;47.264;11.330;2023-07-13T05:59:13;18.20;99.90
29547;DHT22;40782;47.264;11.330;2023-07-13T06:01:40;18.20;99.90
29547;DHT22;40782;47.264;11.330;2023-07-13T06:04:07;18.20;99.90
29547;DHT22;40782;47.264;11.330;2023-07-13T06:06:34;18.20;99.90
29547;DHT22;40782;47.264;11.330;2023-07-13T06:09:02;18.20;99.90
29547;DHT22;40782;47.264;11.330;2023-07-13T06:11:29;18.20;99.90
29547;DHT22;40782;47.264;11.330;2023-07-13T06:13:57;18.10;99.90
29547;DHT22;40782;47.264;11.330;2023-07-13T06:16:25;18.10;99.90
29547;DHT22;40782;47.264;11.330;2023-07-13T06:18:52;18.20;99.90
29547;DHT22;40782;47.264;11.330;2023-07-13T06:21:20;18.30;99.90
29547;DHT22;40782;47.264;11.330;2023-07-13T06:23:48;18.30;99.90
29547;DHT22;40782;47.264;11.330;2023-07-13T06:26:15;18.40;99.90
29547;DHT22;40782;47.264;11.330;2023-07-13T06:28:42;18.50;99.90
29547;DHT22;40782;47.264;11.330;2023-07-13T06:31:11;18.60;99.90
29547;DHT22;40782;47.264;11.330;2023-07-13T06:33:39;18.60;99.90
29547;DHT22;40782;47.264;11.330;2023-07-13T06:36:06;18.70;99.90
29547;DHT22;40782;47.264;11.330;2023-07-13T06:38:33;18.80;99.90
29547;DHT22;40782;47.264;11.330;2023-07-13T06:41:01;18.90;99.90
29547;DHT22;40782;47.264;11.330;2023-07-13T06:43:28;18.90;99.90
29547;DHT22;40782;47.264;11.330;2023-07-13T06:45:57;18.80;99.90
29547;DHT22;40782;47.264;11.330;2023-07-13T06:48:26;18.80;99.90
29547;DHT22;40782;47.264;11.330;2023-07-13T06:50:53;18.90;99.90
29547;DHT22;40782;47.264;11.330;2023-07-13T06:53:20;19.00;99.90
29547;DHT22;40782;47.264;11.330;2023-07-13T06:55:48;19.00;99.90
29547;DHT22;40782;47.264;11.330;2023-07-13T06:58:18;19.20;99.90
29547;DHT22;40782;47.264;11.330;2023-07-13T07:00:45;19.20;99.90
29547;DHT22;40782;47.264;11.330;2023-07-13T07:03:12;19.30;99.90
29547;DHT22;40782;47.264;11.330;2023-07-13T07:05:41;19.20;99.90
29547;DHT22;40782;47.264;11.330;2023-07-13T07:08:08;19.30;99.90
29547;DHT22;40782;47.264;11.330;2023-07-13T07:10:35;19.30;99.90
29547;DHT22;40782;47.264;11.330;2023-07-13T07:13:03;19.30;99.90
29547;DHT22;40782;47.264;11.330;2023-07-13T07:15:30;19.30;99.90
29547;DHT22;40782;47.264;11.330;2023-07-13T07:17:57;19.30;99.90
29547;DHT22;40782;47.264;11.330;2023-07-13T07:20:24;19.30;99.90
29547;DHT22;40782;47.264;11.330;2023-07-13T07:22:53;19.40;99.90
29547;DHT22;40782;47.264;11.330;2023-07-13T07:25:20;19.50;99.90
29547;DHT22;40782;47.264;11.330;2023-07-13T07:27:47;19.60;99.90
29547;DHT22;40782;47.264;11.330;2023-07-13T07:30:14;19.70;99.90
29547;DHT22;40782;47.264;11.330;2023-07-13T07:32:41;19.80;99.90
29547;DHT22;40782;47.264;11.330;2023-07-13T07:35:08;20.00;99.90
29547;DHT22;40782;47.264;11.330;2023-07-13T07:37:36;20.10;99.90
29547;DHT22;40782;47.264;11.330;2023-07-13T07:40:05;20.20;99.90
29547;DHT22;40782;47.264;11.330;2023-07-13T07:42:33;20.30;99.90
29547;DHT22;40782;47.264;11.330;2023-07-13T07:45:00;20.30;99.90
29547;DHT22;40782;47.264;11.330;2023-07-13T07:47:27;20.30;99.90
29547;DHT22;40782;47.264;11.330;2023-07-13T07:49:55;20.40;99.90
29547;DHT22;40782;47.264;11.330;2023-07-13T07:52:22;20.50;99.90
29547;DHT22;40782;47.264;11.330;2023-07-13T07:54:49;20.40;99.90
29547;DHT22;40782;47.264;11.330;2023-07-13T07:57:18;20.40;99.90
29547;DHT22;40782;47.264;11.330;2023-07-13T07:59:45;20.50;99.90
29547;DHT22;40782;47.264;11.330;2023-07-13T08:02:12;20.60;99.90
29547;DHT22;40782;47.264;11.330;2023-07-13T08:04:39;20.70;99.90
29547;DHT22;40782;47.264;11.330;2023-07-13T08:07:06;20.80;99.90
29547;DHT22;40782;47.264;11.330;2023-07-13T08:09:33;20.90;99.90
29547;DHT22;40782;47.264;11.330;2023-07-13T08:12:00;20.90;99.90
29547;DHT22;40782;47.264;11.330;2023-07-13T08:14:29;21.00;99.90
29547;DHT22;40782;47.264;11.330;2023-07-13T08:16:56;21.10;99.90
29547;DHT22;40782;47.264;11.330;2023-07-13T08:19:23;21.00;99.90
29547;DHT22;40782;47.264;11.330;2023-07-13T08:21:51;20.90;99.90
29547;DHT22;40782;47.264;11.330;2023-07-13T08:24:18;20.90;99.90
29547;DHT22;40782;47.264;11.330;2023-07-13T08:26:45;21.10;99.90
29547;DHT22;40782;47.264;11.330;2023-07-13T08:29:12;21.20;99.90
29547;DHT22;40782;47.264;11.330;2023-07-13T08:31:41;21.30;99.90
29547;DHT22;40782;47.264;11.330;2023-07-13T08:34:08;21.40;99.90
29547;DHT22;40782;47.264;11.330;2023-07-13T08:36:35;21.40;99.90
29547;DHT22;40782;47.264;11.330;2023-07-13T08:39:02;21.50;99.90
29547;DHT22;40782;47.264;11.330;2023-07-13T08:41:29;21.70;99.90
29547;DHT22;40782;47.264;11.330;2023-07-13T08:43:56;21.80;99.90
29547;DHT22;40782;47.264;11.330;2023-07-13T08:46:25;22.00;99.90
29547;DHT22;40782;47.264;11.330;2023-07-13T08:48:58;22.00;99.90
29547;DHT22;40782;47.264;11.330;2023-07-13T08:51:34;22.10;99.90
29547;DHT22;40782;47.264;11.330;2023-07-13T08:54:02;22.10;99.90
29547;DHT22;40782;47.264;11.330;2023-07-13T08:56:30;22.10;99.90
29547;DHT22;40782;47.264;11.330;2023-07-13T08:58:58;22.20;99.90
29547;DHT22;40782;47.264;11.330;2023-07-13T09:01:28;22.40;99.90
29547;DHT22;40782;47.264;11.330;2023-07-13T09:03:59;22.50;99.90
29547;DHT22;40782;47.264;11.330;2023-07-13T09:06:30;22.60;99.90
29547;DHT22;40782;47.264;11.330;2023-07-13T09:08:59;22.50;99.90
29547;DHT22;40782;47.264;11.330;2023-07-13T09:11:36;22.40;99.90
29547;DHT22;40782;47.264;11.330;2023-07-13T09:14:22;22.30;99.90
29547;DHT22;40782;47.264;11.330;2023-07-13T09:16:51;22.20;99.90
29547;DHT22;40782;47.264;11.330;2023-07-13T09:19:23;22.30;99.90
29547;DHT22;40782;47.264;11.330;2023-07-13T09:21:51;22.40;99.90
29547;DHT22;40782;47.264;11.330;2023-07-13T09:24:28;22.30;99.90
29547;DHT22;40782;47.264;11.330;2023-07-13T09:26:56;22.30;99.90
29547;DHT22;40782;47.264;11.330;2023-07-13T09:29:27;22.30;99.90
29547;DHT22;40782;47.264;11.330;2023-07-13T09:31:55;22.30;99.90
29547;DHT22;40782;47.264;11.330;2023-07-13T09:34:25;22.10;99.90
29547;DHT22;40782;47.264;11.330;2023-07-13T09:36:52;22.10;99.90
29547;DHT22;40782;47.264;11.330;2023-07-13T09:39:21;22.10;99.90
29547;DHT22;40782;47.264;11.330;2023-07-13T09:41:51;22.10;99.90
29547;DHT22;40782;47.264;11.330;2023-07-13T09:44:26;22.00;99.90
29547;DHT22;40782;47.264;11.330;2023-07-13T09:46:56;21.90;99.90
29547;DHT22;40782;47.264;11.330;2023-07-13T09:49:24;21.90;99.90
29547;DHT22;40782;47.264;11.330;2023-07-13T09:51:57;21.80;99.90
29547;DHT22;40782;47.264;11.330;2023-07-13T09:54:25;21.80;99.90
29547;DHT22;40782;47.264;11.330;2023-07-13T09:56:55;21.90;99.90
29547;DHT22;40782;47.264;11.330;2023-07-13T09:59:23;21.90;99.90
29547;DHT22;40782;47.264;11.330;2023-07-13T10:01:51;21.90;99.90
29547;DHT22;40782;47.264;11.330;2023-07-13T10:04:18;21.90;99.90
29547;DHT22;40782;47.264;11.330;2023-07-13T10:06:46;21.90;99.90
29547;DHT22;40782;47.264;11.330;2023-07-13T10:09:16;22.00;99.90
29547;DHT22;40782;47.264;11.330;2023-07-13T10:11:44;22.00;99.90
29547;DHT22;40782;47.264;11.330;2023-07-13T10:14:13;22.10;99.90
29547;DHT22;40782;47.264;11.330;2023-07-13T10:16:41;22.20;99.90
29547;DHT22;40782;47.264;11.330;2023-07-13T10:19:10;22.20;99.90
29547;DHT22;40782;47.264;11.330;2023-07-13T10:21:41;22.30;99.90
29547;DHT22;40782;47.264;11.330;2023-07-13T10:24:11;22.60;99.90
29547;DHT22;40782;47.264;11.330;2023-07-13T10:26:42;22.80;99.90
29547;DHT22;40782;47.264;11.330;2023-07-13T10:29:11;23.00;99.90
29547;DHT22;40782;47.264;11.330;2023-07-13T10:31:39;23.10;99.90
29547;DHT22;40782;47.264;11.330;2023-07-13T10:34:08;23.10;99.90
29547;DHT22;40782;47.264;11.330;2023-07-13T10:36:38;23.00;99.90
29547;DHT22;40782;47.264;11.330;2023-07-13T10:39:07;22.90;99.90
29547;DHT22;40782;47.264;11.330;2023-07-13T10:41:35;22.90;99.90
29547;DHT22;40782;47.264;11.330;2023-07-13T10:44:04;23.00;99.90
29547;DHT22;40782;47.264;11.330;2023-07-13T10:46:33;22.90;99.90
29547;DHT22;40782;47.264;11.330;2023-07-13T10:49:01;23.00;99.90
29547;DHT22;40782;47.264;11.330;2023-07-13T10:51:29;23.10;99.90
29547;DHT22;40782;47.264;11.330;2023-07-13T10:54:16;23.30;99.90
29547;DHT22;40782;47.264;11.330;2023-07-13T10:56:44;23.40;99.90
29547;DHT22;40782;47.264;11.330;2023-07-13T10:59:14;23.80;99.90
29547;DHT22;40782;47.264;11.330;2023-07-13T11:01:50;23.90;99.90
29547;DHT22;40782;47.264;11.330;2023-07-13T11:04:18;24.20;99.90
29547;DHT22;40782;47.264;11.330;2023-07-13T11:06:47;24.60;99.90
29547;DHT22;40782;47.264;11.330;2023-07-13T11:09:19;24.80;99.90
29547;DHT22;40782;47.264;11.330;2023-07-13T11:11:46;25.00;99.90
29547;DHT22;40782;47.264;11.330;2023-07-13T11:14:28;25.30;99.90
29547;DHT22;40782;47.264;11.330;2023-07-13T11:16:56;25.60;99.90
29547;DHT22;40782;47.264;11.330;2023-07-13T11:19:28;25.90;99.90
29547;DHT22;40782;47.264;11.330;2023-07-13T11:22:10;26.00;99.90
29547;DHT22;40782;47.264;11.330;2023-07-13T11:24:48;26.10;99.90
29547;DHT22;40782;47.264;11.330;2023-07-13T11:27:21;25.90;99.90
29547;DHT22;40782;47.264;11.330;2023-07-13T11:29:50;25.80;99.90
29547;DHT22;40782;47.264;11.330;2023-07-13T11:32:22;25.60;99.90
29547;DHT22;40782;47.264;11.330;2023-07-13T11:34:52;25.40;99.90
29547;DHT22;40782;47.264;11.330;2023-07-13T11:37:20;25.20;99.90
29547;DHT22;40782;47.264;11.330;2023-07-13T11:39:48;25.00;99.90
29547;DHT22;40782;47.264;11.330;2023-07-13T11:42:18;24.90;99.90
29547;DHT22;40782;47.264;11.330;2023-07-13T11:44:47;24.80;99.90
29547;DHT22;40782;47.264;11.330;2023-07-13T11:47:16;24.70;99.90
29547;DHT22;40782;47.264;11.330;2023-07-13T11:49:48;24.60;99.90
29547;DHT22;40782;47.264;11.330;2023-07-13T11:52:17;24.50;99.90
29547;DHT22;40782;47.264;11.330;2023-07-13T11:54:46;24.20;99.90
29547;DHT22;40782;47.264;11.330;2023-07-13T11:57:19;23.80;99.90
29547;DHT22;40782;47.264;11.330;2023-07-13T11:59:50;23.60;99.90
29547;DHT22;40782;47.264;11.330;2023-07-13T12:02:22;23.50;99.90
29547;DHT22;40782;47.264;11.330;2023-07-13T12:04:52;23.40;99.90
29547;DHT22;40782;47.264;11.330;2023-07-13T12:07:20;23.20;99.90
29547;DHT22;40782;47.264;11.330;2023-07-13T12:09:47;23.10;99.90
29547;DHT22;40782;47.264;11.330;2023-07-13T12:12:17;22.90;99.90
29547;DHT22;40782;47.264;11.330;2023-07-13T12:14:44;22.80;99.90
29547;DHT22;40782;47.264;11.330;2023-07-13T12:17:16;22.70;99.90
29547;DHT22;40782;47.264;11.330;2023-07-13T12:19:44;22.60;99.90
29547;DHT22;40782;47.264;11.330;2023-07-13T12:22:12;22.50;99.90
29547;DHT22;40782;47.264;11.330;2023-07-13T12:24:40;22.50;99.90
29547;DHT22;40782;47.264;11.330;2023-07-13T12:27:16;22.30;99.90
29547;DHT22;40782;47.264;11.330;2023-07-13T12:29:49;22.00;99.90
29547;DHT22;40782;47.264;11.330;2023-07-13T12:32:17;21.90;99.90
29547;DHT22;40782;47.264;11.330;2023-07-13T12:34:55;21.80;99.90
29547;DHT22;40782;47.264;11.330;2023-07-13T12:37:22;21.80;99.90
29547;DHT22;40782;47.264;11.330;2023-07-13T12:39:49;21.70;99.90
29547;DHT22;40782;47.264;11.330;2023-07-13T12:42:20;21.60;99.90
29547;DHT22;40782;47.264;11.330;2023-07-13T12:44:49;21.60;99.90
29547;DHT22;40782;47.264;11.330;2023-07-13T12:47:19;21.50;99.90
29547;DHT22;40782;47.264;11.330;2023-07-13T12:49:48;21.50;99.90
29547;DHT22;40782;47.264;11.330;2023-07-13T12:52:19;21.50;99.90
29547;DHT22;40782;47.264;11.330;2023-07-13T12:54:53;21.50;99.90
29547;DHT22;40782;47.264;11.330;2023-07-13T12:57:22;21.50;99.90
29547;DHT22;40782;47.264;11.330;2023-07-13T12:59:51;21.50;99.90
29547;DHT22;40782;47.264;11.330;2023-07-13T13:02:21;21.50;99.90
29547;DHT22;40782;47.264;11.330;2023-07-13T13:04:50;21.50;99.90
29547;DHT22;40782;47.264;11.330;2023-07-13T13:07:18;21.50;99.90
29547;DHT22;40782;47.264;11.330;2023-07-13T13:09:45;21.50;99.90
29547;DHT22;40782;47.264;11.330;2023-07-13T13:12:12;21.50;99.90
29547;DHT22;40782;47.264;11.330;2023-07-13T13:14:40;21.50;99.90
29547;DHT22;40782;47.264;11.330;2023-07-13T13:17:11;21.60;99.90
29547;DHT22;40782;47.264;11.330;2023-07-13T13:19:44;21.70;99.90
29547;DHT22;40782;47.264;11.330;2023-07-13T13:22:11;21.70;99.90
29547;DHT22;40782;47.264;11.330;2023-07-13T13:24:40;21.70;99.90
29547;DHT22;40782;47.264;11.330;2023-07-13T13:27:10;21.70;99.90
29547;DHT22;40782;47.264;11.330;2023-07-13T13:29:41;21.80;99.90
29547;DHT22;40782;47.264;11.330;2023-07-13T13:32:09;21.90;99.90
29547;DHT22;40782;47.264;11.330;2023-07-13T13:34:38;22.00;99.90
29547;DHT22;40782;47.264;11.330;2023-07-13T13:37:16;22.10;99.90
29547;DHT22;40782;47.264;11.330;2023-07-13T13:39:44;22.50;99.90
29547;DHT22;40782;47.264;11.330;2023-07-13T13:42:12;23.20;99.90
29547;DHT22;40782;47.264;11.330;2023-07-13T13:44:39;23.80;99.90
29547;DHT22;40782;47.264;11.330;2023-07-13T13:47:13;24.10;99.90
29547;DHT22;40782;47.264;11.330;2023-07-13T13:49:43;24.00;99.90
29547;DHT22;40782;47.264;11.330;2023-07-13T13:52:12;24.00;99.90
29547;DHT22;40782;47.264;11.330;2023-07-13T13:54:39;24.00;99.90
29547;DHT22;40782;47.264;11.330;2023-07-13T13:57:08;23.90;99.90
29547;DHT22;40782;47.264;11.330;2023-07-13T13:59:37;23.80;99.90
29547;DHT22;40782;47.264;11.330;2023-07-13T14:02:08;23.80;99.90
29547;DHT22;40782;47.264;11.330;2023-07-13T14:04:38;23.80;99.90
29547;DHT22;40782;47.264;11.330;2023-07-13T14:07:05;23.80;99.90
29547;DHT22;40782;47.264;11.330;2023-07-13T14:09:32;23.80;99.90
29547;DHT22;40782;47.264;11.330;2023-07-13T14:11:59;23.90;99.90
29547;DHT22;40782;47.264;11.330;2023-07-13T14:14:28;24.00;99.90
29547;DHT22;40782;47.264;11.330;2023-07-13T14:16:55;24.10;99.90
29547;DHT22;40782;47.264;11.330;2023-07-13T14:19:23;24.20;99.90
29547;DHT22;40782;47.264;11.330;2023-07-13T14:21:50;24.20;99.90
29547;DHT22;40782;47.264;11.330;2023-07-13T14:24:19;24.00;99.90
29547;DHT22;40782;47.264;11.330;2023-07-13T14:26:46;24.00;99.90
29547;DHT22;40782;47.264;11.330;2023-07-13T14:29:14;23.90;99.90
29547;DHT22;40782;47.264;11.330;2023-07-13T14:31:43;23.80;99.90
29547;DHT22;40782;47.264;11.330;2023-07-13T14:34:11;23.60;99.90
29547;DHT22;40782;47.264;11.330;2023-07-13T14:36:40;23.50;99.90
29547;DHT22;40782;47.264;11.330;2023-07-13T14:39:11;23.40;99.90
29547;DHT22;40782;47.264;11.330;2023-07-13T14:41:38;23.20;99.90
29547;DHT22;40782;47.264;11.330;2023-07-13T14:44:12;23.20;99.90
29547;DHT22;40782;47.264;11.330;2023-07-13T14:46:40;23.10;99.90
29547;DHT22;40782;47.264;11.330;2023-07-13T14:49:12;22.80;99.90
29547;DHT22;40782;47.264;11.330;2023-07-13T14:51:40;22.70;99.90
29547;DHT22;40782;47.264;11.330;2023-07-13T14:54:08;22.60;99.90
29547;DHT22;40782;47.264;11.330;2023-07-13T14:56:35;22.40;99.90
29547;DHT22;40782;47.264;11.330;2023-07-13T14:59:02;22.10;99.90
29547;DHT22;40782;47.264;11.330;2023-07-13T15:01:30;21.90;99.90
29547;DHT22;40782;47.264;11.330;2023-07-13T15:03:57;21.60;99.90
29547;DHT22;40782;47.264;11.330;2023-07-13T15:06:26;21.30;99.90
29547;DHT22;40782;47.264;11.330;2023-07-13T15:08:54;21.10;99.90
29547;DHT22;40782;47.264;11.330;2023-07-13T15:11:21;20.90;99.90
29547;DHT22;40782;47.264;11.330;2023-07-13T15:13:49;20.70;99.90
29547;DHT22;40782;47.264;11.330;2023-07-13T15:16:16;20.50;99.90
29547;DHT22;40782;47.264;11.330;2023-07-13T15:18:44;20.30;99.90
29547;DHT22;40782;47.264;11.330;2023-07-13T15:21:13;20.10;99.90
29547;DHT22;40782;47.264;11.330;2023-07-13T15:23:42;20.00;99.90